createdAt,value
2023-02-27T00:00:15.038Z,102239.00
2023-02-27T00:02:44.020Z,102239.00
2023-02-27T00:05:11.083Z,102232.00
2023-02-27T00:07:38.053Z,102236.00
2023-02-27T00:10:05.397Z,102229.00
2023-02-27T00:12:37.738Z,102233.00
2023-02-27T00:15:16.503Z,102223.00
2023-02-27T00:17:45.418Z,102230.00
2023-02-27T00:20:16.192Z,102236.00
2023-02-27T00:22:43.242Z,102236.00
2023-02-27T00:25:10.341Z,102242.00
2023-02-27T00:27:37.089Z,102237.00
2023-02-27T00:30:09.271Z,102235.00
2023-02-27T00:32:36.919Z,102238.00
2023-02-27T00:35:13.037Z,102239.00
2023-02-27T00:37:43.209Z,102227.00
2023-02-27T00:40:10.908Z,102234.00
2023-02-27T00:42:39.084Z,102236.00
2023-02-27T00:45:07.117Z,102241.00
2023-02-27T00:47:36.345Z,102232.00
2023-02-27T00:50:03.208Z,102238.00
2023-02-27T00:52:34.510Z,102233.00
2023-02-27T00:55:01.566Z,102230.00
2023-02-27T00:57:28.554Z,102231.00
2023-02-27T00:59:55.333Z,102242.00
2023-02-27T01:02:22.307Z,102226.00
2023-02-27T01:04:49.679Z,102226.00
2023-02-27T01:07:16.746Z,102218.00
2023-02-27T01:09:44.849Z,102222.00
2023-02-27T01:12:11.744Z,102222.00
2023-02-27T01:14:38.390Z,102216.00
2023-02-27T01:17:05.632Z,102215.00
2023-02-27T01:19:33.249Z,102225.00
2023-02-27T01:22:00.182Z,102216.00
2023-02-27T01:24:27.273Z,102218.00
2023-02-27T01:26:54.237Z,102211.00
2023-02-27T01:29:21.325Z,102212.00
2023-02-27T01:31:49.160Z,102215.00
2023-02-27T01:34:18.642Z,102211.00
2023-02-27T01:36:45.756Z,102205.00
2023-02-27T01:39:12.802Z,102214.00
2023-02-27T01:41:39.680Z,102206.00
2023-02-27T01:44:11.411Z,102216.00
2023-02-27T01:46:38.401Z,102207.00
2023-02-27T01:49:12.937Z,102212.00
2023-02-27T01:51:47.973Z,102216.00
2023-02-27T01:54:19.446Z,102220.00
2023-02-27T01:56:46.841Z,102218.00
2023-02-27T01:59:15.344Z,102227.00
2023-02-27T02:01:45.344Z,102215.00
2023-02-27T02:04:31.031Z,102211.00
2023-02-27T02:07:01.447Z,102203.00
2023-02-27T02:09:30.155Z,102214.00
2023-02-27T02:11:58.578Z,102205.00
2023-02-27T02:14:25.318Z,102205.00
2023-02-27T02:17:16.874Z,102214.00
2023-02-27T02:20:31.282Z,102214.00
2023-02-27T02:23:38.828Z,102208.00
2023-02-27T02:26:33.159Z,102200.00
2023-02-27T02:29:32.759Z,102203.00
2023-02-27T02:32:26.575Z,102207.00
2023-02-27T02:35:36.094Z,102219.00
2023-02-27T02:38:28.403Z,102216.00
2023-02-27T02:41:11.259Z,102214.00
2023-02-27T02:43:53.552Z,102217.00
2023-02-27T02:46:36.617Z,102227.00
2023-02-27T02:49:16.714Z,102222.00
2023-02-27T02:51:55.872Z,102216.00
2023-02-27T02:54:34.384Z,102223.00
2023-02-27T02:57:10.089Z,102232.00
2023-02-27T02:59:45.207Z,102237.00
2023-02-27T03:02:19.086Z,102228.00
2023-02-27T03:05:08.672Z,102235.00
2023-02-27T03:07:48.854Z,102230.00
2023-02-27T03:13:29.329Z,102237.00
2023-02-27T03:16:06.761Z,102251.00
2023-02-27T03:18:43.331Z,102246.00
2023-02-27T03:21:22.023Z,102253.00
2023-02-27T03:23:51.678Z,102246.00
2023-02-27T03:26:23.151Z,102249.00
2023-02-27T03:29:01.684Z,102259.00
2023-02-27T03:31:39.656Z,102254.00
2023-02-27T03:34:23.846Z,102256.00
2023-02-27T03:37:30.171Z,102251.00
2023-02-27T03:40:27.913Z,102257.00
2023-02-27T03:43:14.797Z,102264.00
2023-02-27T03:46:07.957Z,102267.00
2023-02-27T03:48:35.024Z,102274.00
2023-02-27T03:51:02.718Z,102277.00
2023-02-27T03:53:39.046Z,102278.00
2023-02-27T03:56:08.810Z,102271.00
2023-02-27T03:58:36.326Z,102276.00
2023-02-27T04:01:03.268Z,102278.00
2023-02-27T04:03:37.722Z,102290.00
2023-02-27T04:06:24.997Z,102282.00
2023-02-27T04:09:11.157Z,102283.00
2023-02-27T04:11:53.429Z,102287.00
2023-02-27T04:14:46.305Z,102291.00
2023-02-27T04:17:24.541Z,102285.00
2023-02-27T04:20:17.996Z,102295.00
2023-02-27T04:22:58.049Z,102294.00
2023-02-27T04:25:36.055Z,102300.00
2023-02-27T04:28:18.988Z,102302.00
2023-02-27T04:31:01.122Z,102299.00
2023-02-27T04:33:42.026Z,102306.00
2023-02-27T04:36:13.046Z,102309.00
2023-02-27T04:39:08.634Z,102305.00
2023-02-27T04:41:44.039Z,102303.00
2023-02-27T04:44:12.647Z,102310.00
2023-02-27T04:46:41.771Z,102306.00
2023-02-27T04:49:28.135Z,102305.00
2023-02-27T04:52:12.809Z,102309.00
2023-02-27T04:54:52.546Z,102307.00
2023-02-27T04:57:32.014Z,102304.00
2023-02-27T05:00:02.505Z,102310.00
2023-02-27T05:02:34.867Z,102310.00
2023-02-27T05:05:03.774Z,102305.00
2023-02-27T05:07:39.703Z,102303.00
2023-02-27T05:10:14.040Z,102307.00
2023-02-27T05:12:59.899Z,102304.00
2023-02-27T05:15:29.464Z,102306.00
2023-02-27T05:18:13.521Z,102296.00
2023-02-27T05:20:45.391Z,102318.00
2023-02-27T05:23:30.397Z,102301.00
2023-02-27T05:26:15.753Z,102302.00
2023-02-27T05:29:06.630Z,102311.00
2023-02-27T05:31:56.701Z,102308.00
2023-02-27T05:34:29.070Z,102306.00
2023-02-27T05:37:13.963Z,102311.00
2023-02-27T05:39:42.218Z,102317.00
2023-02-27T05:42:16.816Z,102331.00
2023-02-27T05:44:49.737Z,102331.00
2023-02-27T05:47:22.305Z,102328.00
2023-02-27T05:49:52.465Z,102347.00
2023-02-27T05:52:22.842Z,102342.00
2023-02-27T05:55:11.667Z,102347.00
2023-02-27T05:57:47.632Z,102337.00
2023-02-27T06:00:19.833Z,102341.00
2023-02-27T06:02:46.319Z,102344.00
2023-02-27T06:05:18.317Z,102335.00
2023-02-27T06:07:45.508Z,102348.00
2023-02-27T06:10:19.328Z,102344.00
2023-02-27T06:12:47.515Z,102353.00
2023-02-27T06:15:16.977Z,102360.00
2023-02-27T06:17:43.632Z,102363.00
2023-02-27T06:20:10.722Z,102359.00
2023-02-27T06:22:46.398Z,102357.00
2023-02-27T06:25:13.231Z,102378.00
2023-02-27T06:27:39.751Z,102381.00
2023-02-27T06:30:10.308Z,102368.00
2023-02-27T06:32:36.844Z,102371.00
2023-02-27T06:35:03.387Z,102366.00
2023-02-27T06:37:30.217Z,102378.00
2023-02-27T06:39:56.700Z,102377.00
2023-02-27T06:42:26.907Z,102378.00
2023-02-27T06:44:53.415Z,102373.00
2023-02-27T06:47:19.868Z,102372.00
2023-02-27T06:49:46.368Z,102370.00
2023-02-27T06:52:12.856Z,102375.00
2023-02-27T06:54:39.313Z,102373.00
2023-02-27T06:57:06.103Z,102374.00
2023-02-27T06:59:32.748Z,102370.00
2023-02-27T07:02:00.586Z,102364.00
2023-02-27T07:04:27.103Z,102375.00
2023-02-27T07:07:32.484Z,102399.00
2023-02-27T07:09:40.052Z,102412.00
2023-02-27T07:12:07.988Z,102420.00
2023-02-27T07:14:34.663Z,102429.00
2023-02-27T07:17:04.428Z,102429.00
2023-02-27T07:19:33.538Z,102439.00
2023-02-27T07:21:59.977Z,102440.00
2023-02-27T07:24:26.523Z,102426.00
2023-02-27T07:26:53.776Z,102442.00
2023-02-27T07:29:20.295Z,102438.00
2023-02-27T07:31:46.865Z,102435.00
2023-02-27T07:34:14.866Z,102430.00
2023-02-27T07:36:45.264Z,102435.00
2023-02-27T07:39:15.003Z,102430.00
2023-02-27T07:41:41.552Z,102432.00
2023-02-27T07:44:08.642Z,102436.00
2023-02-27T07:46:35.455Z,102443.00
2023-02-27T07:49:01.928Z,102439.00
2023-02-27T07:51:29.070Z,102440.00
2023-02-27T07:53:58.619Z,102441.00
2023-02-27T07:56:28.477Z,102441.00
2023-02-27T07:58:55.097Z,102439.00
2023-02-27T08:01:21.904Z,102439.00
2023-02-27T08:03:48.389Z,102446.00
2023-02-27T08:06:14.880Z,102447.00
2023-02-27T08:08:47.550Z,102434.00
2023-02-27T08:11:14.374Z,102436.00
2023-02-27T08:14:00.476Z,102436.00
2023-02-27T08:16:27.797Z,102432.00
2023-02-27T08:18:54.717Z,102444.00
2023-02-27T08:21:21.196Z,102445.00
2023-02-27T08:23:49.154Z,102445.00
2023-02-27T08:26:15.636Z,102451.00
2023-02-27T08:28:42.143Z,102444.00
2023-02-27T08:31:08.707Z,102449.00
2023-02-27T08:33:36.522Z,102457.00
2023-02-27T08:36:03.129Z,102453.00
2023-02-27T08:38:29.718Z,102454.00
2023-02-27T08:40:56.191Z,102459.00
2023-02-27T08:43:23.279Z,102455.00
2023-02-27T08:45:50.381Z,102458.00
2023-02-27T08:48:18.445Z,102455.00
2023-02-27T08:50:46.017Z,102457.00
2023-02-27T08:53:12.605Z,102454.00
2023-02-27T08:55:39.356Z,102455.00
2023-02-27T08:58:05.805Z,102458.00
2023-02-27T09:00:32.840Z,102450.00
2023-02-27T09:03:01.759Z,102457.00
2023-02-27T09:05:29.114Z,102444.00
2023-02-27T09:07:55.904Z,102452.00
2023-02-27T09:10:22.645Z,102452.00
2023-02-27T09:12:49.285Z,102452.00
2023-02-27T09:15:17.147Z,102449.00
2023-02-27T09:17:43.755Z,102443.00
2023-02-27T09:20:11.454Z,102448.00
2023-02-27T09:22:38.486Z,102450.00
2023-02-27T09:25:05.787Z,102455.00
2023-02-27T09:27:32.220Z,102458.00
2023-02-27T09:29:59.257Z,102440.00
2023-02-27T09:32:27.034Z,102457.00
2023-02-27T09:34:53.913Z,102455.00
2023-02-27T09:37:20.378Z,102464.00
2023-02-27T09:39:47.307Z,102470.00
2023-02-27T09:42:37.525Z,102466.00
2023-02-27T09:45:39.708Z,102470.00
2023-02-27T09:48:16.045Z,102458.00
2023-02-27T09:50:45.252Z,102465.00
2023-02-27T09:53:33.981Z,102470.00
2023-02-27T09:56:23.070Z,102479.00
2023-02-27T09:59:14.327Z,102474.00
2023-02-27T10:01:49.732Z,102478.00
2023-02-27T10:04:33.437Z,102469.00
2023-02-27T10:07:16.593Z,102472.00
2023-02-27T10:09:54.446Z,102476.00
2023-02-27T10:12:34.579Z,102478.00
2023-02-27T10:15:13.302Z,102478.00
2023-02-27T10:17:44.602Z,102483.00
2023-02-27T10:20:22.423Z,102484.00
2023-02-27T10:22:50.629Z,102482.00
2023-02-27T10:25:30.698Z,102486.00
2023-02-27T10:28:09.336Z,102495.00
2023-02-27T10:30:36.123Z,102490.00
2023-02-27T10:33:11.006Z,102501.00
2023-02-27T10:35:39.890Z,102494.00
2023-02-27T10:38:13.506Z,102498.00
2023-02-27T10:40:42.730Z,102487.00
2023-02-27T10:43:13.124Z,102506.00
2023-02-27T10:45:39.667Z,102496.00
2023-02-27T10:48:06.365Z,102501.00
2023-02-27T10:50:37.794Z,102487.00
2023-02-27T10:53:16.072Z,102489.00
2023-02-27T10:55:47.503Z,102499.00
2023-02-27T10:58:20.174Z,102501.00
2023-02-27T11:00:56.609Z,102503.00
2023-02-27T11:03:29.682Z,102512.00
2023-02-27T11:06:01.699Z,102512.00
2023-02-27T11:08:30.211Z,102506.00
2023-02-27T11:11:04.637Z,102516.00
2023-02-27T11:13:35.279Z,102506.00
2023-02-27T11:16:09.672Z,102507.00
2023-02-27T11:18:38.917Z,102505.00
2023-02-27T11:21:28.657Z,102502.00
2023-02-27T11:24:17.928Z,102498.00
2023-02-27T11:27:06.716Z,102488.00
2023-02-27T11:29:34.715Z,102489.00
2023-02-27T11:32:20.080Z,102474.00
2023-02-27T11:34:49.793Z,102489.00
2023-02-27T11:37:30.419Z,102482.00
2023-02-27T11:40:09.441Z,102481.00
2023-02-27T11:42:41.987Z,102477.00
2023-02-27T11:46:09.876Z,102467.00
2023-02-27T11:48:22.548Z,102488.00
2023-02-27T11:51:05.410Z,102467.00
2023-02-27T11:53:47.138Z,102492.00
2023-02-27T11:56:19.165Z,102498.00
2023-02-27T11:58:56.525Z,102501.00
2023-02-27T12:01:33.306Z,102495.00
2023-02-27T12:04:15.714Z,102503.00
2023-02-27T12:06:48.233Z,102505.00
2023-02-27T12:09:34.170Z,102502.00
2023-02-27T12:12:06.156Z,102499.00
2023-02-27T12:14:42.701Z,102494.00
2023-02-27T12:17:29.687Z,102492.00
2023-02-27T12:19:59.731Z,102495.00
2023-02-27T12:22:33.656Z,102455.00
2023-02-27T12:25:14.057Z,102492.00
2023-02-27T12:27:59.487Z,102492.00
2023-02-27T12:30:29.717Z,102494.00
2023-02-27T12:33:15.881Z,102498.00
2023-02-27T12:35:44.617Z,102497.00
2023-02-27T12:38:15.240Z,102498.00
2023-02-27T12:41:01.416Z,102498.00
2023-02-27T12:44:10.988Z,102494.00
2023-02-27T12:47:04.415Z,102489.00
2023-02-27T12:49:43.003Z,102493.00
2023-02-27T12:52:19.413Z,102490.00
2023-02-27T12:55:14.048Z,102491.00
2023-02-27T12:58:05.368Z,102484.00
2023-02-27T13:01:00.697Z,102498.00
2023-02-27T13:03:54.428Z,102498.00
2023-02-27T13:06:30.461Z,102501.00
2023-02-27T13:09:11.631Z,102504.00
2023-02-27T13:11:57.210Z,102506.00
2023-02-27T13:14:49.281Z,102507.00
2023-02-27T13:17:26.864Z,102504.00
2023-02-27T13:20:17.935Z,102504.00
2023-02-27T13:23:26.364Z,102501.00
2023-02-27T13:25:55.251Z,102504.00
2023-02-27T13:28:25.887Z,102499.00
2023-02-27T13:31:10.410Z,102494.00
2023-02-27T13:33:54.478Z,102499.00
2023-02-27T13:36:26.608Z,102493.00
2023-02-27T13:38:55.458Z,102490.00
2023-02-27T13:41:24.773Z,102487.00
2023-02-27T13:43:53.117Z,102496.00
2023-02-27T13:46:28.335Z,102502.00
2023-02-27T13:49:27.110Z,102505.00
2023-02-27T13:51:58.603Z,102501.00
2023-02-27T13:54:31.118Z,102499.00
2023-02-27T13:57:18.090Z,102494.00
2023-02-27T13:59:52.640Z,102500.00
2023-02-27T14:02:59.416Z,102490.00
2023-02-27T14:05:35.148Z,102499.00
2023-02-27T14:08:19.343Z,102479.00
2023-02-27T14:10:54.988Z,102478.00
2023-02-27T14:13:54.900Z,102482.00
2023-02-27T14:16:44.129Z,102498.00
2023-02-27T14:19:17.156Z,102502.00
2023-02-27T14:21:52.002Z,102506.00
2023-02-27T14:24:23.111Z,102497.00
2023-02-27T14:26:52.423Z,102508.00
2023-02-27T14:29:23.019Z,102515.00
2023-02-27T14:31:51.045Z,102517.00
2023-02-27T14:34:20.833Z,102514.00
2023-02-27T14:36:52.289Z,102514.00
2023-02-27T14:39:32.019Z,102520.00
2023-02-27T14:42:31.797Z,102515.00
2023-02-27T14:44:59.239Z,102528.00
2023-02-27T14:47:36.863Z,102529.00
2023-02-27T14:50:06.622Z,102524.00
2023-02-27T14:52:42.630Z,102527.00
2023-02-27T14:55:28.167Z,102525.00
2023-02-27T14:57:56.731Z,102535.00
2023-02-27T15:00:50.683Z,102533.00
2023-02-27T15:03:23.745Z,102535.00
2023-02-27T15:05:52.868Z,102540.00
2023-02-27T15:08:26.362Z,102541.00
2023-02-27T15:10:55.627Z,102535.00
2023-02-27T15:13:28.124Z,102545.00
2023-02-27T15:16:31.735Z,102537.00
2023-02-27T15:19:30.530Z,102542.00
2023-02-27T15:21:59.786Z,102541.00
2023-02-27T15:24:33.145Z,102541.00
2023-02-27T15:27:01.788Z,102546.00
2023-02-27T15:29:34.467Z,102543.00
2023-02-27T15:32:01.740Z,102548.00
2023-02-27T15:34:29.736Z,102551.00
2023-02-27T15:36:57.676Z,102543.00
2023-02-27T15:39:26.556Z,102549.00
2023-02-27T15:41:56.580Z,102552.00
2023-02-27T15:44:26.972Z,102549.00
2023-02-27T15:46:54.304Z,102552.00
2023-02-27T15:49:23.276Z,102562.00
2023-02-27T15:52:02.224Z,102552.00
2023-02-27T15:54:33.704Z,102554.00
2023-02-27T15:57:01.009Z,102554.00
2023-02-27T15:59:30.658Z,102562.00
2023-02-27T16:01:57.517Z,102565.00
2023-02-27T16:04:26.266Z,102555.00
2023-02-27T16:07:06.563Z,102557.00
2023-02-27T16:09:36.751Z,102564.00
2023-02-27T16:12:22.758Z,102559.00
2023-02-27T16:14:55.820Z,102569.00
2023-02-27T16:17:33.139Z,102571.00
2023-02-27T16:20:40.988Z,102571.00
2023-02-27T16:23:28.474Z,102584.00
2023-02-27T16:26:14.655Z,102581.00
2023-02-27T16:28:54.041Z,102589.00
2023-02-27T16:31:26.986Z,102588.00
2023-02-27T16:34:01.548Z,102584.00
2023-02-27T16:36:32.316Z,102581.00
2023-02-27T16:38:58.842Z,102578.00
2023-02-27T16:41:25.963Z,102580.00
2023-02-27T16:43:54.220Z,102580.00
2023-02-27T16:46:22.245Z,102582.00
2023-02-27T16:48:51.312Z,102596.00
2023-02-27T16:51:21.508Z,102592.00
2023-02-27T16:53:48.557Z,102596.00
2023-02-27T16:56:23.744Z,102592.00
2023-02-27T16:58:55.607Z,102600.00
2023-02-27T17:01:22.270Z,102597.00
2023-02-27T17:03:48.894Z,102598.00
2023-02-27T17:06:15.351Z,102595.00
2023-02-27T17:08:44.012Z,102592.00
2023-02-27T17:11:10.701Z,102598.00
2023-02-27T17:13:37.312Z,102598.00
2023-02-27T17:16:05.048Z,102597.00
2023-02-27T17:18:31.819Z,102605.00
2023-02-27T17:21:03.249Z,102609.00
2023-02-27T17:23:30.734Z,102615.00
2023-02-27T17:25:57.301Z,102599.00
2023-02-27T17:28:24.053Z,102602.00
2023-02-27T17:30:50.672Z,102607.00
2023-02-27T17:33:17.235Z,102607.00
2023-02-27T17:35:43.854Z,102612.00
2023-02-27T17:38:10.331Z,102615.00
2023-02-27T17:40:39.514Z,102616.00
2023-02-27T17:43:06.499Z,102618.00
2023-02-27T17:45:33.053Z,102608.00
2023-02-27T17:47:59.723Z,102609.00
2023-02-27T17:50:26.210Z,102616.00
2023-02-27T17:52:54.759Z,102615.00
2023-02-27T17:55:21.418Z,102621.00
2023-02-27T17:57:47.890Z,102626.00
2023-02-27T18:00:15.248Z,102620.00
2023-02-27T18:02:44.113Z,102615.00
2023-02-27T18:05:10.879Z,102624.00
2023-02-27T18:07:37.878Z,102609.00
2023-02-27T18:10:08.960Z,102617.00
2023-02-27T18:12:36.657Z,102606.00
2023-02-27T18:15:04.341Z,102614.00
2023-02-27T18:17:30.937Z,102603.00
2023-02-27T18:19:58.050Z,102606.00
2023-02-27T18:22:24.934Z,102612.00
2023-02-27T18:24:55.772Z,102610.00
2023-02-27T18:27:22.448Z,102617.00
2023-02-27T18:29:51.777Z,102610.00
2023-02-27T18:32:18.340Z,102616.00
2023-02-27T18:34:45.050Z,102620.00
2023-02-27T18:37:11.704Z,102620.00
2023-02-27T18:39:38.340Z,102618.00
2023-02-27T18:42:06.804Z,102628.00
2023-02-27T18:44:33.502Z,102617.00
2023-02-27T18:47:01.052Z,102619.00
2023-02-27T18:49:30.334Z,102619.00
2023-02-27T18:51:56.822Z,102619.00
2023-02-27T18:54:23.389Z,102626.00
2023-02-27T18:56:52.942Z,102626.00
2023-02-27T18:59:19.811Z,102627.00
2023-02-27T19:01:46.359Z,102640.00
2023-02-27T19:04:12.865Z,102640.00
2023-02-27T19:06:42.321Z,102631.00
2023-02-27T19:09:12.716Z,102647.00
2023-02-27T19:11:39.652Z,102649.00
2023-02-27T19:14:08.855Z,102640.00
2023-02-27T19:16:37.955Z,102653.00
2023-02-27T19:19:05.012Z,102649.00
2023-02-27T19:21:32.697Z,102643.00
2023-02-27T19:24:02.794Z,102658.00
2023-02-27T19:26:32.962Z,102645.00
2023-02-27T19:29:07.260Z,102646.00
2023-02-27T19:31:34.455Z,102647.00
2023-02-27T19:34:01.183Z,102648.00
2023-02-27T19:36:29.786Z,102646.00
2023-02-27T19:38:56.976Z,102655.00
2023-02-27T19:41:24.438Z,102655.00
2023-02-27T19:43:51.703Z,102657.00
2023-02-27T19:46:21.017Z,102658.00
2023-02-27T19:48:47.680Z,102664.00
2023-02-27T19:51:17.064Z,102659.00
2023-02-27T19:53:46.103Z,102653.00
2023-02-27T19:56:15.311Z,102662.00
2023-02-27T19:58:42.405Z,102648.00
2023-02-27T20:01:09.920Z,102660.00
2023-02-27T20:03:38.100Z,102658.00
2023-02-27T20:06:08.209Z,102661.00
2023-02-27T20:08:39.041Z,102656.00
2023-02-27T20:11:06.025Z,102661.00
2023-02-27T20:13:35.394Z,102652.00
2023-02-27T20:16:04.959Z,102661.00
2023-02-27T20:18:32.418Z,102656.00
2023-02-27T20:21:06.551Z,102662.00
2023-02-27T20:23:35.528Z,102662.00
2023-02-27T20:26:23.549Z,102661.00
2023-02-27T20:28:52.115Z,102650.00
2023-02-27T20:31:25.335Z,102663.00
2023-02-27T20:33:54.881Z,102670.00
2023-02-27T20:36:21.375Z,102666.00
2023-02-27T20:38:47.847Z,102663.00
2023-02-27T20:41:18.147Z,102659.00
2023-02-27T20:43:45.403Z,102665.00
2023-02-27T20:46:32.094Z,102668.00
2023-02-27T20:49:00.642Z,102656.00
2023-02-27T20:51:29.926Z,102668.00
2023-02-27T20:53:59.714Z,102656.00
2023-02-27T20:56:30.646Z,102658.00
2023-02-27T20:58:59.659Z,102656.00
2023-02-27T21:04:44.282Z,102661.00
2023-02-27T21:07:26.300Z,102658.00
2023-02-27T21:10:06.148Z,102665.00
2023-02-27T21:13:00.232Z,102667.00
2023-02-27T21:16:12.593Z,102668.00
2023-02-27T21:18:45.738Z,102661.00
2023-02-27T21:21:18.655Z,102672.00
2023-02-27T21:23:47.661Z,102659.00
2023-02-27T21:26:38.751Z,102663.00
2023-02-27T21:29:22.204Z,102675.00
2023-02-27T21:31:51.179Z,102676.00
2023-02-27T21:34:22.936Z,102671.00
2023-02-27T21:36:52.998Z,102664.00
2023-02-27T21:39:26.023Z,102672.00
2023-02-27T21:41:52.920Z,102672.00
2023-02-27T21:44:21.900Z,102666.00
2023-02-27T21:46:48.509Z,102663.00
2023-02-27T21:49:24.953Z,102668.00
2023-02-27T21:51:51.581Z,102668.00
2023-02-27T21:54:19.125Z,102672.00
2023-02-27T21:56:47.908Z,102672.00
2023-02-27T21:59:15.358Z,102663.00
2023-02-27T22:01:47.177Z,102673.00
2023-02-27T22:04:16.113Z,102663.00
2023-02-27T22:06:43.068Z,102659.00
2023-02-27T22:09:09.717Z,102661.00
2023-02-27T22:11:36.392Z,102663.00
2023-02-27T22:14:08.518Z,102662.00
2023-02-27T22:16:35.202Z,102658.00
2023-02-27T22:19:13.298Z,102663.00
2023-02-27T22:21:40.316Z,102667.00
2023-02-27T22:24:08.270Z,102662.00
2023-02-27T22:26:35.456Z,102667.00
2023-02-27T22:29:02.633Z,102666.00
2023-02-27T22:31:32.448Z,102666.00
2023-02-27T22:34:02.611Z,102668.00
2023-02-27T22:36:31.940Z,102674.00
2023-02-27T22:38:59.328Z,102676.00
2023-02-27T22:41:32.218Z,102681.00
2023-02-27T22:44:00.773Z,102681.00
2023-02-27T22:46:36.965Z,102679.00
2023-02-27T22:49:10.239Z,102673.00
2023-02-27T22:51:37.530Z,102679.00
2023-02-27T22:54:05.469Z,102677.00
2023-02-27T22:56:33.236Z,102676.00
2023-02-27T22:58:59.925Z,102673.00
2023-02-27T23:01:29.100Z,102691.00
2023-02-27T23:04:04.111Z,102680.00
2023-02-27T23:06:36.941Z,102686.00
2023-02-27T23:09:05.478Z,102680.00
2023-02-27T23:11:32.682Z,102684.00
2023-02-27T23:13:59.697Z,102689.00
2023-02-27T23:16:26.490Z,102687.00
2023-02-27T23:18:55.978Z,102693.00
2023-02-27T23:21:26.529Z,102689.00
2023-02-27T23:23:58.374Z,102697.00
2023-02-27T23:26:28.320Z,102697.00
2023-02-27T23:28:56.084Z,102696.00
2023-02-27T23:31:22.742Z,102706.00
2023-02-27T23:33:49.270Z,102699.00
2023-02-27T23:36:15.731Z,102696.00
2023-02-27T23:38:43.050Z,102707.00
2023-02-27T23:41:10.224Z,102702.00
2023-02-27T23:43:55.344Z,102705.00
2023-02-27T23:46:21.828Z,102704.00
2023-02-27T23:48:51.687Z,102716.00
2023-02-27T23:51:18.329Z,102708.00
2023-02-27T23:53:45.002Z,102714.00
2023-02-27T23:56:16.832Z,102715.00
2023-02-27T23:58:44.081Z,102711.00
